createdAt,value
2019-03-20T00:00:12.867Z,102647.76
2019-03-20T00:02:41.731Z,102649.02
2019-03-20T00:05:10.693Z,102643.90
2019-03-20T00:07:39.631Z,102642.47
2019-03-20T00:10:09.598Z,102646.59
2019-03-20T00:12:38.924Z,102636.09
2019-03-20T00:15:09.377Z,102628.82
2019-03-20T00:17:38.404Z,102630.89
2019-03-20T00:20:08.564Z,102625.35
2019-03-20T00:22:37.473Z,102623.98
2019-03-20T00:25:06.577Z,102625.58
2019-03-20T00:27:35.598Z,102623.30
2019-03-20T00:30:04.831Z,102622.04
2019-03-20T00:32:33.843Z,102636.64
2019-03-20T00:35:02.818Z,102636.30
2019-03-20T00:37:31.850Z,102632.41
2019-03-20T00:40:00.772Z,102633.84
2019-03-20T00:42:29.643Z,102635.23
2019-03-20T00:44:58.614Z,102636.45
2019-03-20T00:47:27.622Z,102623.13
2019-03-20T00:49:58.111Z,102634.83
2019-03-20T00:52:25.562Z,102635.65
2019-03-20T00:54:54.532Z,102630.74
2019-03-20T00:57:23.467Z,102623.39
2019-03-20T00:59:52.395Z,102625.77
2019-03-20T01:02:21.545Z,102625.02
2019-03-20T01:04:50.461Z,102625.61
2019-03-20T01:07:19.415Z,102621.14
2019-03-20T01:09:48.403Z,102618.64
2019-03-20T01:12:17.800Z,102625.48
2019-03-20T01:14:46.308Z,102626.64
2019-03-20T01:17:15.317Z,102618.47
2019-03-20T01:19:44.309Z,102619.28
2019-03-20T01:22:15.130Z,102620.50
2019-03-20T01:24:44.030Z,102621.62
2019-03-20T01:27:13.018Z,102613.59
2019-03-20T01:29:41.977Z,102617.80
2019-03-20T01:32:10.984Z,102616.42
2019-03-20T01:34:39.984Z,102616.86
2019-03-20T01:37:08.964Z,102623.13
2019-03-20T01:39:37.959Z,102622.76
2019-03-20T01:42:06.957Z,102617.98
2019-03-20T01:44:35.969Z,102616.36
2019-03-20T01:47:06.855Z,102609.32
2019-03-20T01:49:33.883Z,102609.80
2019-03-20T01:52:02.842Z,102608.47
2019-03-20T01:54:31.880Z,102611.81
2019-03-20T01:57:00.862Z,102595.59
2019-03-20T01:59:29.801Z,102599.87
2019-03-20T02:01:58.847Z,102599.36
2019-03-20T02:04:27.792Z,102595.58
2019-03-20T02:06:56.861Z,102597.33
2019-03-20T02:09:25.781Z,102595.50
2019-03-20T02:11:54.797Z,102600.23
2019-03-20T02:14:23.765Z,102600.41
2019-03-20T02:16:52.761Z,102604.68
2019-03-20T02:19:21.749Z,102607.31
2019-03-20T02:21:50.783Z,102614.86
2019-03-20T02:24:19.743Z,102618.02
2019-03-20T02:26:48.794Z,102613.50
2019-03-20T02:29:17.727Z,102609.06
2019-03-20T02:31:46.722Z,102604.94
2019-03-20T02:34:15.755Z,102605.17
2019-03-20T02:36:44.746Z,102606.85
2019-03-20T02:39:13.702Z,102598.29
2019-03-20T02:41:42.705Z,102604.42
2019-03-20T02:44:11.658Z,102605.05
2019-03-20T02:46:40.679Z,102603.55
2019-03-20T02:49:09.704Z,102601.14
2019-03-20T02:51:38.693Z,102600.41
2019-03-20T02:54:07.761Z,102608.64
2019-03-20T02:56:36.747Z,102605.94
2019-03-20T02:59:05.610Z,102621.72
2019-03-20T03:01:34.580Z,102619.83
2019-03-20T03:04:03.657Z,102614.77
2019-03-20T03:06:32.555Z,102617.78
2019-03-20T03:09:06.165Z,102613.33
2019-03-20T03:11:35.194Z,102612.20
2019-03-20T03:14:04.117Z,102612.34
2019-03-20T03:16:33.108Z,102602.78
2019-03-20T03:19:02.213Z,102595.33
2019-03-20T03:21:31.150Z,102584.77
2019-03-20T03:24:00.165Z,102576.52
2019-03-20T03:26:29.198Z,102581.38
2019-03-20T03:28:58.278Z,102583.92
2019-03-20T03:31:27.123Z,102586.30
2019-03-20T03:33:56.081Z,102575.33
2019-03-20T03:36:25.069Z,102570.11
2019-03-20T03:38:54.067Z,102564.70
2019-03-20T03:41:23.055Z,102571.92
2019-03-20T03:43:52.025Z,102575.43
2019-03-20T03:46:20.996Z,102582.06
2019-03-20T03:48:50.099Z,102580.11
2019-03-20T03:51:19.013Z,102589.77
2019-03-20T03:53:48.026Z,102590.33
2019-03-20T03:56:17.037Z,102590.67
2019-03-20T03:58:46.092Z,102595.73
2019-03-20T04:01:15.031Z,102602.48
2019-03-20T04:03:44.052Z,102596.44
2019-03-20T04:06:13.043Z,102597.09
2019-03-20T04:08:42.013Z,102602.84
2019-03-20T04:11:10.966Z,102602.69
2019-03-20T04:13:40.212Z,102599.25
2019-03-20T04:16:09.266Z,102598.97
2019-03-20T04:18:38.254Z,102602.42
2019-03-20T04:21:10.478Z,102604.24
2019-03-20T04:23:39.417Z,102601.12
2019-03-20T04:26:08.423Z,102596.88
2019-03-20T04:28:37.438Z,102594.31
2019-03-20T04:31:06.485Z,102590.81
2019-03-20T04:33:35.405Z,102594.45
2019-03-20T04:36:04.490Z,102602.72
2019-03-20T04:38:33.432Z,102606.30
2019-03-20T04:41:02.504Z,102612.13
2019-03-20T04:43:31.452Z,102610.78
2019-03-20T04:46:00.473Z,102618.30
2019-03-20T04:48:29.497Z,102618.14
2019-03-20T04:50:58.492Z,102619.28
2019-03-20T04:53:30.169Z,102623.16
2019-03-20T04:55:59.119Z,102624.43
2019-03-20T04:58:28.111Z,102608.82
2019-03-20T05:00:56.998Z,102614.09
2019-03-20T05:03:25.924Z,102619.30
2019-03-20T05:05:54.936Z,102619.13
2019-03-20T05:08:24.005Z,102626.81
2019-03-20T05:10:53.071Z,102631.73
2019-03-20T05:13:23.658Z,102629.53
2019-03-20T05:15:53.899Z,102634.59
2019-03-20T05:18:24.599Z,102638.23
2019-03-20T05:20:55.262Z,102638.66
2019-03-20T05:23:26.071Z,102631.11
2019-03-20T05:25:59.174Z,102647.88
2019-03-20T05:28:27.031Z,102647.88
2019-03-20T05:31:00.193Z,102643.44
2019-03-20T05:33:30.365Z,102652.70
2019-03-20T05:36:00.799Z,102655.03
2019-03-20T05:38:30.938Z,102653.03
2019-03-20T05:41:04.293Z,102656.45
2019-03-20T05:43:35.108Z,102654.70
2019-03-20T05:46:05.385Z,102663.28
2019-03-20T05:48:35.929Z,102658.61
2019-03-20T05:51:05.863Z,102659.71
2019-03-20T05:53:36.538Z,102661.13
2019-03-20T05:56:07.037Z,102669.01
2019-03-20T05:58:40.229Z,102664.48
2019-03-20T06:01:10.428Z,102660.72
2019-03-20T06:03:40.886Z,102674.23
2019-03-20T06:06:11.468Z,102677.80
2019-03-20T06:08:41.868Z,102676.64
2019-03-20T06:11:12.297Z,102682.73
2019-03-20T06:13:43.238Z,102685.22
2019-03-20T06:16:13.862Z,102685.29
2019-03-20T06:18:44.705Z,102678.95
2019-03-20T06:21:14.378Z,102684.89
2019-03-20T06:23:44.595Z,102682.67
2019-03-20T06:26:15.101Z,102681.30
2019-03-20T06:28:48.728Z,102687.96
2019-03-20T06:31:19.491Z,102683.69
2019-03-20T06:33:50.408Z,102686.77
2019-03-20T06:36:24.185Z,102683.47
2019-03-20T06:38:55.128Z,102685.18
2019-03-20T06:41:25.863Z,102685.76
2019-03-20T06:43:56.705Z,102694.55
2019-03-20T06:46:27.411Z,102696.16
2019-03-20T06:48:58.321Z,102693.23
2019-03-20T06:51:29.234Z,102692.49
2019-03-20T06:54:00.343Z,102692.62
2019-03-20T06:56:33.074Z,102700.95
2019-03-20T06:59:50.953Z,102705.19
2019-03-20T07:02:23.443Z,102704.84
2019-03-20T07:05:31.580Z,102703.95
2019-03-20T07:08:02.444Z,102714.39
2019-03-20T07:11:13.184Z,102708.71
2019-03-20T07:13:43.793Z,102704.34
2019-03-20T07:16:16.559Z,102706.77
2019-03-20T07:18:47.162Z,102713.84
2019-03-20T07:21:18.750Z,102711.09
2019-03-20T07:23:48.454Z,102717.30
2019-03-20T07:26:23.346Z,102716.50
2019-03-20T07:28:54.843Z,102707.95
2019-03-20T07:31:25.755Z,102704.66
2019-03-20T07:33:56.358Z,102712.17
2019-03-20T07:36:28.370Z,102715.22
2019-03-20T07:38:58.777Z,102715.22
2019-03-20T07:41:29.721Z,102722.94
2019-03-20T07:44:01.896Z,102723.49
2019-03-20T07:46:32.931Z,102727.25
2019-03-20T07:49:03.917Z,102729.64
2019-03-20T07:51:34.742Z,102729.00
2019-03-20T07:54:06.185Z,102729.84
2019-03-20T07:56:36.720Z,102733.17
2019-03-20T07:59:07.268Z,102737.27
2019-03-20T08:01:40.991Z,102730.35
2019-03-20T08:04:11.374Z,102741.09
2019-03-20T08:06:42.328Z,102738.84
2019-03-20T08:09:12.581Z,102742.04
2019-03-20T08:11:45.665Z,102746.27
2019-03-20T08:14:16.203Z,102749.88
2019-03-20T08:16:46.571Z,102757.77
2019-03-20T08:19:15.870Z,102759.67
2019-03-20T08:21:44.967Z,102765.53
2019-03-20T08:24:14.069Z,102761.11
2019-03-20T08:26:43.570Z,102763.20
2019-03-20T08:29:13.009Z,102763.45
2019-03-20T08:31:42.187Z,102769.58
2019-03-20T08:34:11.243Z,102769.10
2019-03-20T08:36:40.279Z,102772.41
2019-03-20T08:39:09.420Z,102769.47
2019-03-20T08:41:38.792Z,102775.42
2019-03-20T08:44:07.960Z,102773.16
2019-03-20T08:46:36.921Z,102776.28
2019-03-20T08:49:06.055Z,102774.09
2019-03-20T08:51:35.642Z,102773.81
2019-03-20T08:54:07.589Z,102773.34
2019-03-20T08:56:36.600Z,102777.23
2019-03-20T08:59:06.850Z,102774.07
2019-03-20T09:01:35.842Z,102780.66
2019-03-20T09:04:05.147Z,102785.19
2019-03-20T09:06:34.240Z,102787.39
2019-03-20T09:09:03.874Z,102792.64
2019-03-20T09:11:32.882Z,102789.36
2019-03-20T09:14:02.234Z,102790.70
2019-03-20T09:16:31.261Z,102791.04
2019-03-20T09:19:03.709Z,102800.58
2019-03-20T09:21:35.095Z,102792.41
2019-03-20T09:24:04.277Z,102797.46
2019-03-20T09:26:36.515Z,102798.91
2019-03-20T09:29:18.250Z,102805.17
2019-03-20T09:31:38.101Z,102801.44
2019-03-20T09:34:07.284Z,102805.61
2019-03-20T09:36:42.991Z,102814.14
2019-03-20T09:39:07.921Z,102814.98
2019-03-20T09:41:37.102Z,102819.56
2019-03-20T09:44:06.239Z,102816.28
2019-03-20T09:46:35.285Z,102815.30
2019-03-20T09:49:04.663Z,102822.88
2019-03-20T09:51:33.991Z,102826.80
2019-03-20T09:54:06.093Z,102832.86
2019-03-20T09:56:38.426Z,102834.47
2019-03-20T09:59:07.921Z,102841.47
2019-03-20T10:01:36.947Z,102838.06
2019-03-20T10:04:06.100Z,102844.92
2019-03-20T10:06:35.089Z,102840.61
2019-03-20T10:09:05.143Z,102840.03
2019-03-20T10:11:34.666Z,102833.52
2019-03-20T10:14:04.556Z,102836.94
2019-03-20T10:16:33.733Z,102836.37
2019-03-20T10:19:02.782Z,102834.28
2019-03-20T10:21:34.439Z,102836.86
2019-03-20T10:24:03.505Z,102840.09
2019-03-20T10:26:32.503Z,102835.91
2019-03-20T10:29:01.525Z,102839.05
2019-03-20T10:31:30.605Z,102831.17
2019-03-20T10:33:59.736Z,102843.39
2019-03-20T10:36:28.914Z,102840.41
2019-03-20T10:39:06.304Z,102834.83
2019-03-20T10:41:26.863Z,102829.30
2019-03-20T10:43:56.338Z,102833.36
2019-03-20T10:46:25.815Z,102830.25
2019-03-20T10:48:56.358Z,102839.05
2019-03-20T10:51:23.777Z,102827.53
2019-03-20T10:53:52.811Z,102829.86
2019-03-20T10:56:22.232Z,102833.77
2019-03-20T10:58:51.236Z,102838.48
2019-03-20T11:01:20.375Z,102836.89
2019-03-20T11:03:49.447Z,102843.94
2019-03-20T11:06:18.487Z,102842.97
2019-03-20T11:08:47.542Z,102848.77
2019-03-20T11:11:26.536Z,102845.45
2019-03-20T11:13:46.054Z,102841.92
2019-03-20T11:16:15.091Z,102847.71
2019-03-20T11:18:48.617Z,102851.20
2019-03-20T11:21:16.955Z,102856.30
2019-03-20T11:23:45.995Z,102855.16
2019-03-20T11:26:15.148Z,102854.70
2019-03-20T11:28:44.141Z,102861.98
2019-03-20T11:31:13.619Z,102870.97
2019-03-20T11:33:43.487Z,102869.42
2019-03-20T11:36:12.634Z,102865.08
2019-03-20T11:38:41.918Z,102870.91
2019-03-20T11:41:10.989Z,102862.31
2019-03-20T11:43:40.095Z,102864.82
2019-03-20T11:46:09.363Z,102865.89
2019-03-20T11:48:39.549Z,102862.69
2019-03-20T11:51:08.961Z,102859.48
2019-03-20T11:53:38.054Z,102858.70
2019-03-20T11:56:08.051Z,102868.79
2019-03-20T11:58:37.986Z,102872.95
2019-03-20T12:01:07.118Z,102867.08
2019-03-20T12:03:36.200Z,102867.16
2019-03-20T12:06:05.429Z,102872.98
2019-03-20T12:08:34.440Z,102870.97
2019-03-20T12:11:03.565Z,102867.67
2019-03-20T12:13:35.466Z,102866.64
2019-03-20T12:16:07.083Z,102858.84
2019-03-20T12:18:36.156Z,102863.33
2019-03-20T12:21:05.548Z,102863.85
2019-03-20T12:23:34.960Z,102867.13
2019-03-20T12:26:04.144Z,102863.79
2019-03-20T12:28:33.109Z,102863.50
2019-03-20T12:31:02.484Z,102860.16
2019-03-20T12:33:31.566Z,102858.25
2019-03-20T12:36:00.600Z,102860.36
2019-03-20T12:38:29.876Z,102857.22
2019-03-20T12:40:59.569Z,102846.45
2019-03-20T12:43:28.614Z,102852.68
2019-03-20T12:45:57.951Z,102846.79
2019-03-20T12:48:27.255Z,102850.27
2019-03-20T12:50:56.376Z,102843.43
2019-03-20T12:53:29.191Z,102845.88
2019-03-20T12:55:59.343Z,102850.20
2019-03-20T12:58:28.320Z,102857.20
2019-03-20T13:00:57.279Z,102857.77
2019-03-20T13:03:26.741Z,102859.64
2019-03-20T13:05:56.600Z,102859.80
2019-03-20T13:08:26.053Z,102859.75
2019-03-20T13:10:55.433Z,102867.09
2019-03-20T13:13:24.431Z,102866.92
2019-03-20T13:15:54.199Z,102866.14
2019-03-20T13:18:23.151Z,102864.68
2019-03-20T13:20:52.228Z,102865.50
2019-03-20T13:23:23.633Z,102871.66
2019-03-20T13:25:52.679Z,102867.35
2019-03-20T13:28:22.583Z,102864.02
2019-03-20T13:30:55.257Z,102860.55
2019-03-20T13:33:25.904Z,102866.02
2019-03-20T13:35:53.729Z,102862.33
2019-03-20T13:38:22.828Z,102871.36
2019-03-20T13:40:51.848Z,102869.99
2019-03-20T13:43:21.056Z,102859.12
2019-03-20T13:45:50.210Z,102860.26
2019-03-20T13:48:19.433Z,102859.48
2019-03-20T13:50:48.540Z,102857.94
2019-03-20T13:53:18.816Z,102857.95
2019-03-20T13:55:47.863Z,102857.19
2019-03-20T13:58:17.310Z,102860.84
2019-03-20T14:00:46.530Z,102858.00
2019-03-20T14:03:15.965Z,102860.81
2019-03-20T14:05:45.101Z,102850.58
2019-03-20T14:08:14.052Z,102844.22
2019-03-20T14:10:50.331Z,102847.77
2019-03-20T14:13:13.531Z,102836.60
2019-03-20T14:15:43.639Z,102836.23
2019-03-20T14:18:13.474Z,102837.32
2019-03-20T14:20:42.941Z,102831.64
2019-03-20T14:23:11.989Z,102830.17
2019-03-20T14:25:40.966Z,102831.20
2019-03-20T14:28:10.048Z,102835.72
2019-03-20T14:30:40.193Z,102836.65
2019-03-20T14:33:11.039Z,102833.59
2019-03-20T14:35:40.439Z,102833.14
2019-03-20T14:38:09.835Z,102836.22
2019-03-20T14:40:39.252Z,102841.26
2019-03-20T14:43:08.461Z,102835.77
2019-03-20T14:45:37.374Z,102844.33
2019-03-20T14:48:09.255Z,102845.44
2019-03-20T14:50:39.035Z,102840.97
2019-03-20T14:53:09.030Z,102840.59
2019-03-20T14:55:38.169Z,102833.92
2019-03-20T14:58:08.181Z,102834.50
2019-03-20T15:00:37.317Z,102834.16
2019-03-20T15:03:06.641Z,102833.06
2019-03-20T15:05:35.813Z,102834.55
2019-03-20T15:08:05.433Z,102830.78
2019-03-20T15:10:34.503Z,102836.86
2019-03-20T15:13:03.733Z,102830.78
2019-03-20T15:15:52.987Z,102828.82
2019-03-20T15:18:22.495Z,102829.08
2019-03-20T15:20:51.539Z,102830.56
2019-03-20T15:23:21.485Z,102832.33
2019-03-20T15:25:51.414Z,102833.09
2019-03-20T15:28:20.576Z,102825.95
2019-03-20T15:30:49.895Z,102829.41
2019-03-20T15:33:19.166Z,102828.88
2019-03-20T15:35:48.372Z,102829.79
2019-03-20T15:38:17.652Z,102827.81
2019-03-20T15:40:55.945Z,102827.76
2019-03-20T15:43:15.877Z,102825.95
2019-03-20T15:45:44.956Z,102822.80
2019-03-20T15:48:14.021Z,102825.95
2019-03-20T15:50:43.532Z,102828.05
2019-03-20T15:53:12.626Z,102828.63
2019-03-20T15:55:44.398Z,102830.19
2019-03-20T15:58:14.240Z,102831.65
2019-03-20T16:00:43.629Z,102826.30
2019-03-20T16:03:15.059Z,102834.21
2019-03-20T16:05:44.112Z,102836.59
2019-03-20T16:08:13.943Z,102829.89
2019-03-20T16:10:43.010Z,102837.70
2019-03-20T16:13:12.090Z,102833.73
2019-03-20T16:15:41.623Z,102826.84
2019-03-20T16:18:10.758Z,102829.41
2019-03-20T16:20:42.064Z,102833.98
2019-03-20T16:23:11.973Z,102838.70
2019-03-20T16:25:41.165Z,102835.53
2019-03-20T16:28:10.415Z,102834.47
2019-03-20T16:30:42.396Z,102842.19
2019-03-20T16:33:11.474Z,102839.98
2019-03-20T16:35:40.477Z,102844.38
2019-03-20T16:38:13.799Z,102849.28
2019-03-20T16:40:45.728Z,102853.98
2019-03-20T16:43:35.377Z,102854.86
2019-03-20T16:46:06.524Z,102857.73
2019-03-20T16:48:36.619Z,102859.09
2019-03-20T16:51:08.656Z,102856.21
2019-03-20T16:53:40.970Z,102863.17
2019-03-20T16:56:10.203Z,102870.49
2019-03-20T16:58:39.492Z,102876.42
2019-03-20T17:01:09.123Z,102873.31
2019-03-20T17:03:38.772Z,102872.05
2019-03-20T17:06:09.218Z,102873.24
2019-03-20T17:08:38.224Z,102869.94
2019-03-20T17:11:30.447Z,102875.02
2019-03-20T17:13:49.655Z,102875.77
2019-03-20T17:16:19.483Z,102871.91
2019-03-20T17:18:48.497Z,102870.66
2019-03-20T17:21:17.952Z,102875.73
2019-03-20T17:23:47.025Z,102869.29
2019-03-20T17:26:16.946Z,102877.95
2019-03-20T17:28:46.741Z,102873.97
2019-03-20T17:31:15.850Z,102881.48
2019-03-20T17:33:47.219Z,102883.78
2019-03-20T17:36:16.219Z,102879.61
2019-03-20T17:38:45.310Z,102883.48
2019-03-20T17:41:14.507Z,102884.27
2019-03-20T17:43:43.835Z,102878.92
2019-03-20T17:46:12.875Z,102889.91
2019-03-20T17:48:42.293Z,102898.32
2019-03-20T17:51:13.538Z,102899.80
2019-03-20T17:53:44.759Z,102899.41
2019-03-20T17:56:13.788Z,102899.53
2019-03-20T17:58:43.458Z,102897.48
2019-03-20T18:01:12.487Z,102891.89
2019-03-20T18:03:41.562Z,102891.02
2019-03-20T18:06:11.474Z,102892.37
2019-03-20T18:08:40.590Z,102894.21
2019-03-20T18:11:09.580Z,102895.96
2019-03-20T18:13:38.645Z,102897.32
2019-03-20T18:16:08.111Z,102902.84
2019-03-20T18:18:37.676Z,102904.39
2019-03-20T18:21:06.793Z,102909.05
2019-03-20T18:23:38.869Z,102915.09
2019-03-20T18:26:08.413Z,102921.58
2019-03-20T18:28:38.188Z,102911.37
2019-03-20T18:31:08.773Z,102919.44
2019-03-20T18:33:37.725Z,102926.70
2019-03-20T18:36:07.155Z,102918.77
2019-03-20T18:38:37.332Z,102914.30
2019-03-20T18:41:06.530Z,102916.05
2019-03-20T18:43:35.504Z,102924.69
2019-03-20T18:46:04.968Z,102917.89
2019-03-20T18:48:36.143Z,102918.47
2019-03-20T18:51:04.334Z,102913.99
2019-03-20T18:53:33.717Z,102922.27
2019-03-20T18:56:02.746Z,102920.91
2019-03-20T18:58:32.225Z,102920.78
2019-03-20T19:01:02.168Z,102916.62
2019-03-20T19:03:31.553Z,102919.32
2019-03-20T19:06:04.055Z,102922.64
2019-03-20T19:08:33.127Z,102919.14
2019-03-20T19:11:05.017Z,102925.84
2019-03-20T19:13:34.104Z,102917.13
2019-03-20T19:16:03.511Z,102917.40
2019-03-20T19:18:32.862Z,102911.76
2019-03-20T19:21:02.005Z,102920.61
2019-03-20T19:23:31.079Z,102920.61
2019-03-20T19:26:00.176Z,102917.59
2019-03-20T19:28:30.943Z,102920.70
2019-03-20T19:31:00.295Z,102924.46
2019-03-20T19:33:30.238Z,102923.81
2019-03-20T19:36:00.316Z,102918.97
2019-03-20T19:38:34.990Z,102918.07
2019-03-20T19:40:59.045Z,102919.25
2019-03-20T19:43:28.827Z,102920.03
2019-03-20T19:45:59.397Z,102924.69
2019-03-20T19:48:29.769Z,102928.19
2019-03-20T19:50:59.044Z,102929.55
2019-03-20T19:53:30.842Z,102937.30
2019-03-20T19:56:00.281Z,102934.59
2019-03-20T19:58:30.335Z,102944.28
2019-03-20T20:00:59.686Z,102941.08
2019-03-20T20:03:28.709Z,102941.08
2019-03-20T20:05:59.009Z,102935.64
2019-03-20T20:08:30.371Z,102928.95
2019-03-20T20:10:59.390Z,102940.39
2019-03-20T20:13:29.859Z,102939.03
2019-03-20T20:15:59.231Z,102945.33
2019-03-20T20:18:28.393Z,102948.14
2019-03-20T20:20:59.485Z,102944.38
2019-03-20T20:23:29.779Z,102947.09
2019-03-20T20:26:00.997Z,102953.88
2019-03-20T20:28:31.022Z,102954.84
2019-03-20T20:31:01.393Z,102955.33
2019-03-20T20:33:30.454Z,102952.09
2019-03-20T20:35:59.925Z,102951.46
2019-03-20T20:38:28.924Z,102950.64
2019-03-20T20:40:58.229Z,102954.38
2019-03-20T20:43:28.064Z,102953.59
2019-03-20T20:45:59.925Z,102960.94
2019-03-20T20:48:29.258Z,102958.83
2019-03-20T20:50:58.305Z,102955.50
2019-03-20T20:53:28.502Z,102954.62
2019-03-20T20:55:59.367Z,102951.77
2019-03-20T20:58:28.452Z,102959.02
2019-03-20T21:01:15.181Z,102949.50
2019-03-20T21:03:44.687Z,102955.39
2019-03-20T21:06:14.085Z,102951.89
2019-03-20T21:08:43.900Z,102946.72
2019-03-20T21:11:13.329Z,102953.11
2019-03-20T21:13:45.435Z,102949.33
2019-03-20T21:16:15.632Z,102943.88
2019-03-20T21:19:24.952Z,102945.41
2019-03-20T21:22:35.578Z,102937.12
2019-03-20T21:25:05.847Z,102935.51
2019-03-20T21:28:29.734Z,102935.31
2019-03-20T21:31:17.012Z,102931.30
2019-03-20T21:34:31.766Z,102938.80
2019-03-20T21:37:41.526Z,102934.94
2019-03-20T21:40:13.557Z,102942.47
2019-03-20T21:43:20.057Z,102940.20
2019-03-20T21:46:34.693Z,102946.61
2019-03-20T21:49:04.886Z,102938.64
2019-03-20T21:51:35.374Z,102939.14
2019-03-20T21:54:44.231Z,102936.98
2019-03-20T21:57:35.733Z,102939.56
2019-03-20T22:00:45.377Z,102941.95
2019-03-20T22:03:15.982Z,102941.55
2019-03-20T22:06:27.391Z,102940.59
2019-03-20T22:08:58.062Z,102940.12
2019-03-20T22:12:12.892Z,102938.50
2019-03-20T22:14:44.908Z,102948.45
2019-03-20T22:17:51.127Z,102942.56
2019-03-20T22:20:35.399Z,102948.22
2019-03-20T22:24:03.928Z,102950.08
2019-03-20T22:27:10.466Z,102956.94
2019-03-20T22:29:40.553Z,102957.36
2019-03-20T22:32:50.188Z,102955.13
2019-03-20T22:35:44.489Z,102952.02
2019-03-20T22:38:27.128Z,102959.73
2019-03-20T22:41:24.815Z,102955.44
2019-03-20T22:44:01.924Z,102958.78
2019-03-20T22:47:15.905Z,102958.23
2019-03-20T22:50:32.176Z,102948.91
2019-03-20T22:53:27.753Z,102956.00
2019-03-20T22:56:35.801Z,102946.05
2019-03-20T22:59:06.235Z,102943.02
2019-03-20T23:01:53.846Z,102945.80
2019-03-20T23:04:33.569Z,102950.44
2019-03-20T23:07:03.719Z,102957.10
2019-03-20T23:09:33.810Z,102958.85
2019-03-20T23:12:06.772Z,102960.53
2019-03-20T23:14:36.896Z,102958.52
2019-03-20T23:17:07.097Z,102959.17
2019-03-20T23:19:38.047Z,102965.27
2019-03-20T23:22:08.457Z,102969.20
2019-03-20T23:24:38.623Z,102963.09
2019-03-20T23:27:11.899Z,102958.87
2019-03-20T23:29:44.669Z,102955.81
2019-03-20T23:32:14.771Z,102956.54
2019-03-20T23:34:44.879Z,102948.97
2019-03-20T23:37:14.970Z,102945.20
2019-03-20T23:39:45.068Z,102958.89
2019-03-20T23:42:15.169Z,102944.95
2019-03-20T23:44:45.271Z,102958.06
2019-03-20T23:47:15.346Z,102950.25
2019-03-20T23:49:45.789Z,102956.16
2019-03-20T23:52:15.910Z,102959.80
2019-03-20T23:54:48.601Z,102961.49
2019-03-20T23:57:19.259Z,102959.51
2019-03-20T23:59:50.144Z,102961.94
